Bookmark and Share
Track history (hours):
 

Audrey

Last reported at 2014-Apr-14 11:33 UTC. Time now 2014-Apr-17 04:00 UTC.
Position N 47°38' E 007°33'.

Length 85 m; draft 2.3 m.

Type: Other ship. MMSI: 244660106.

NotesDate/timePositionNaut miles runAvg speedWind from/ knotsBaromVisibWave heightAir tempDewpointWater temp
2014-Apr-14 11:33N 47°38' E 007°33'2 2.3
2014-Apr-14 10:33N 47°36' E 007°36'0 0.0
2014-Apr-14 09:33N 47°36' E 007°36'0 0.0
2014-Apr-14 08:33N 47°36' E 007°36'0 0.0
2014-Apr-14 07:33N 47°36' E 007°36'0 0.0
2014-Apr-14 06:33N 47°36' E 007°36'0 0.0
2014-Apr-14 05:33N 47°36' E 007°36'0 0.0
2014-Apr-13 22:33N 47°36' E 007°36'0 0.0
2014-Apr-13 21:33N 47°36' E 007°36'0 0.0
2014-Apr-13 20:33N 47°36' E 007°36'0 0.0
2014-Apr-13 19:33N 47°36' E 007°36'0 0.0
2014-Apr-13 18:33N 47°36' E 007°36'0 0.0
2014-Apr-13 17:33N 47°36' E 007°36'0 0.0
2014-Apr-13 16:33N 47°36' E 007°36'0 0.0
2014-Apr-13 15:33N 47°36' E 007°36'0 0.0
2014-Apr-13 14:33N 47°36' E 007°36'1 1.3
2014-Apr-13 13:33N 47°37' E 007°34'4 3.8
2014-Apr-13 12:32N 47°40' E 007°31'61 2.8
2014-Apr-12 14:20N 48°40' E 007°53'3 4.4
2014-Apr-12 13:33N 48°42' E 007°57'6 5.8
2014-Apr-12 12:31N 48°47' E 008°02'5 4.5
2014-Apr-12 11:28N 48°51' E 008°07'4 4.5
2014-Apr-12 10:33N 48°54' E 008°09'4 4.1
2014-Apr-12 09:33N 48°58' E 008°12'4 3.7
2014-Apr-12 08:33N 48°60' E 008°17'4 4.0
2014-Apr-12 07:31N 49°04' E 008°19'4 3.9
2014-Apr-12 06:33N 49°07' E 008°22'4 3.7
2014-Apr-12 05:32N 49°11' E 008°23'4 4.1
2014-Apr-12 04:33N 49°15' E 008°24'4 4.4
2014-Apr-12 03:33N 49°18' E 008°29'2 1.8
2014-Apr-12 02:33N 49°19' E 008°27'0 0.0
2014-Apr-12 01:33N 49°19' E 008°27'0 0.0
2014-Apr-12 00:33N 49°19' E 008°27'0 0.0
2014-Apr-11 23:33N 49°19' E 008°27'0 0.0
2014-Apr-11 22:33N 49°19' E 008°27'0 0.0
2014-Apr-11 20:33N 49°19' E 008°27'0 0.0
2014-Apr-11 19:32N 49°19' E 008°27'129 2.5
2014-Apr-09 15:33N 51°11' E 006°48'4 3.9
2014-Apr-09 14:33N 51°13' E 006°43'2 2.1
2014-Apr-09 13:21N 51°16' E 006°42'37 3.7
2014-Apr-09 03:15N 51°49' E 006°16'16 1.5
2014-Apr-08 16:33N 51°51' E 005°51'6 6.0
2014-Apr-08 15:33N 51°54' E 005°42'6 5.9
2014-Apr-08 14:33N 51°54' E 005°32'5 5.4
2014-Apr-08 13:33N 51°51' E 005°25'4 4.5
2014-Apr-08 12:33N 51°49' E 005°18'7 6.6
2014-Apr-08 11:33N 51°49' E 005°08'7 7.2
2014-Apr-08 10:33N 51°50' E 004°56'9 8.8
2014-Apr-08 09:34N 51°49' E 004°42'7 7.2
2014-Apr-08 08:31N 51°54' E 004°33'4 4.2
2014-Apr-08 07:33N 51°53' E 004°26'0 0.4
2014-Apr-08 06:30N 51°53' E 004°27'0 0.0
2014-Apr-08 05:33N 51°53' E 004°27'0 0.0
2014-Apr-08 04:31N 51°53' E 004°27'0 0.0
2014-Apr-08 03:33N 51°53' E 004°27'0 0.0
2014-Apr-08 02:27N 51°53' E 004°27'0 0.0
2014-Apr-08 01:33N 51°53' E 004°27'0 0.0
2014-Apr-08 00:23N 51°53' E 004°27'0 0.0
2014-Apr-07 23:25N 51°53' E 004°27'0 0.0
2014-Apr-07 22:33N 51°53' E 004°27'0 0.0
2014-Apr-07 21:24N 51°53' E 004°27'0 0.0
2014-Apr-07 20:32N 51°53' E 004°27'0 0.0
2014-Apr-07 19:31N 51°53' E 004°27'0 0.0
2014-Apr-07 17:12N 51°53' E 004°27'0 0.0
2014-Apr-07 16:26N 51°53' E 004°27'0 0.0
2014-Apr-07 15:18N 51°53' E 004°27'0 0.0
2014-Apr-07 14:23N 51°53' E 004°27'3 2.6
2014-Apr-07 13:25N 51°55' E 004°30'0 0.0
2014-Apr-07 12:29N 51°55' E 004°30'0 0.0
2014-Apr-07 11:23N 51°55' E 004°30'0 0.0
2014-Apr-07 10:24N 51°55' E 004°30'0 0.0
2014-Apr-07 09:24N 51°55' E 004°30'0 0.0
2014-Apr-07 08:33N 51°55' E 004°30'0 0.0
2014-Apr-07 07:24N 51°55' E 004°30'0 0.0
2014-Apr-07 06:27N 51°55' E 004°30'0 0.0
2014-Apr-07 05:33N 51°55' E 004°30'0 0.0
2014-Apr-07 04:33N 51°55' E 004°30'0 0.0
2014-Apr-07 03:33N 51°55' E 004°30'0 0.0
2014-Apr-07 02:32N 51°55' E 004°30'0 0.0
2014-Apr-07 01:32N 51°55' E 004°30'0 0.0
2014-Apr-07 00:31N 51°55' E 004°30'0 0.0
2014-Apr-06 23:33N 51°55' E 004°30'0 0.0
2014-Apr-06 22:33N 51°55' E 004°30'0 0.0
2014-Apr-06 21:33N 51°55' E 004°30'0 0.0
2014-Apr-06 20:33N 51°55' E 004°30'0 0.0
2014-Apr-06 19:33N 51°55' E 004°30'0 0.0
2014-Apr-06 18:33N 51°55' E 004°30'0 0.0
2014-Apr-06 17:33N 51°55' E 004°30'0 0.0
2014-Apr-06 16:33N 51°55' E 004°30'0 0.0
2014-Apr-06 15:33N 51°55' E 004°30'0 0.0
2014-Apr-06 14:33N 51°55' E 004°30'0 0.0
2014-Apr-06 13:33N 51°55' E 004°30'0 0.0
2014-Apr-06 12:32N 51°55' E 004°30'0 0.0
2014-Apr-06 11:33N 51°55' E 004°30'0 0.0
2014-Apr-06 10:33N 51°55' E 004°30'0 0.0
2014-Apr-06 09:33N 51°55' E 004°30'0 0.0
2014-Apr-06 08:33N 51°55' E 004°30'0 0.0
2014-Apr-06 07:33N 51°55' E 004°30'0 0.0
2014-Apr-06 06:33N 51°55' E 004°30'0 0.0
2014-Apr-06 05:33N 51°55' E 004°30'0 0.0
2014-Apr-06 04:33N 51°55' E 004°30'0 0.0
2014-Apr-06 03:33N 51°55' E 004°30'0 0.0
2014-Apr-06 02:33N 51°55' E 004°30'0 0.0
2014-Apr-06 01:33N 51°55' E 004°30'0 0.0
2014-Apr-06 00:33N 51°55' E 004°30'0 0.0
2014-Apr-05 23:33N 51°55' E 004°30'0 0.0
2014-Apr-05 22:33N 51°55' E 004°30'0 0.0
2014-Apr-05 21:32N 51°55' E 004°30'0 0.0
2014-Apr-05 20:32N 51°55' E 004°30'0 0.0
2014-Apr-05 19:33N 51°55' E 004°30'0 0.0
2014-Apr-05 18:33N 51°55' E 004°30'0 0.0
2014-Apr-05 17:33N 51°55' E 004°30'0 0.0
2014-Apr-05 16:32N 51°55' E 004°30'0 0.0
2014-Apr-05 15:33N 51°55' E 004°30'0 0.0
2014-Apr-05 14:33N 51°55' E 004°30'0 0.0
2014-Apr-05 13:32N 51°55' E 004°30'0 0.0
2014-Apr-05 12:33N 51°55' E 004°30'0 0.0
2014-Apr-05 11:33N 51°55' E 004°30'0 0.0
2014-Apr-05 10:33N 51°55' E 004°30'0 0.0
2014-Apr-05 09:33N 51°55' E 004°30'0 0.0
2014-Apr-05 08:33N 51°55' E 004°30'0 0.0
2014-Apr-05 07:33N 51°55' E 004°30'0 0.0
2014-Apr-05 06:33N 51°55' E 004°30'0 0.0
2014-Apr-05 05:33N 51°55' E 004°30'166166.4
2014-Apr-05 04:33N 51°55' E 000°00'166167.2
2014-Apr-05 03:33N 51°55' E 004°30'0 0.0
2014-Apr-05 02:33N 51°55' E 004°30'0 0.0
2014-Apr-04 20:33N 51°55' E 004°30'0 0.0
2014-Apr-04 19:33N 51°55' E 004°30'0 0.0
2014-Apr-04 18:33N 51°55' E 004°30'0 0.0
2014-Apr-04 17:33N 51°55' E 004°30'0 0.0
2014-Apr-04 16:33N 51°55' E 004°30'0 0.0
2014-Apr-04 15:32N 51°55' E 004°30'0 0.0
2014-Apr-04 14:32N 51°55' E 004°30'0 0.0
2014-Apr-04 13:33N 51°55' E 004°30'0 0.0
2014-Apr-04 12:33N 51°55' E 004°30'0 0.0
2014-Apr-04 11:33N 51°55' E 004°30'  

Dump ship's entire track history

sailing weather and tide predictions

Audrey — PD9331 — position and weather